createdAt,value
2023-02-06T04:05:58.927Z,94246.00
2023-02-06T04:09:58.117Z,94252.00
2023-02-06T04:10:58.155Z,94252.00
2023-02-06T04:11:58.183Z,94252.00
2023-02-06T04:12:58.226Z,94254.00
2023-02-06T04:13:58.266Z,94256.00
2023-02-06T04:14:58.297Z,94258.00
2023-02-06T04:15:58.340Z,94256.00
2023-02-06T04:16:58.456Z,94256.00
2023-02-06T04:18:01.015Z,94256.00
2023-02-06T04:18:58.407Z,94256.00
2023-02-06T04:19:58.402Z,94254.00
2023-02-06T04:20:58.404Z,94252.00
2023-02-06T04:21:58.399Z,94248.00
2023-02-06T04:22:58.421Z,94248.00
2023-02-06T04:23:58.375Z,94246.00
2023-02-06T04:24:58.370Z,94246.00
2023-02-06T04:25:58.367Z,94244.00
2023-02-06T04:26:58.364Z,94242.00
2023-02-06T04:27:58.378Z,94238.00
2023-02-06T04:28:58.359Z,94236.00
2023-02-06T04:29:58.352Z,94238.00
2023-02-06T04:30:58.536Z,94244.00
2023-02-06T04:31:58.332Z,94246.00
2023-02-06T04:32:58.343Z,94248.00
2023-02-06T04:33:58.318Z,94248.00
2023-02-06T04:34:58.375Z,94250.00
2023-02-06T04:35:58.298Z,94250.00
2023-02-06T04:36:58.304Z,94250.00
2023-02-06T04:37:58.357Z,94250.00
2023-02-06T04:38:58.298Z,94252.00
2023-02-06T04:39:58.289Z,94252.00
2023-02-06T04:40:58.284Z,94252.00
2023-02-06T04:41:58.288Z,94252.00
2023-02-06T04:42:58.308Z,94250.00
2023-02-06T04:43:58.284Z,94250.00
2023-02-06T04:44:58.281Z,94254.00
2023-02-06T04:45:58.304Z,94256.00
2023-02-06T04:46:58.274Z,94256.00
2023-02-06T04:47:59.516Z,94254.00
2023-02-06T04:48:58.266Z,94252.00
2023-02-06T04:49:58.274Z,94250.00
2023-02-06T04:50:58.280Z,94248.00
2023-02-06T04:51:58.277Z,94246.00
2023-02-06T04:52:58.275Z,94248.00
2023-02-06T04:53:58.277Z,94248.00
2023-02-06T04:54:58.272Z,94244.00
2023-02-06T04:55:58.267Z,94252.00
2023-02-06T04:56:58.272Z,94252.00
2023-02-06T04:57:58.268Z,94252.00
2023-02-06T04:58:58.268Z,94250.00
2023-02-06T04:59:58.272Z,94248.00
2023-02-06T05:00:58.280Z,94250.00
2023-02-06T05:01:58.280Z,94250.00
2023-02-06T05:02:58.278Z,94256.00
2023-02-06T05:03:58.270Z,94258.00
2023-02-06T05:04:58.266Z,94256.00
2023-02-06T05:05:58.339Z,94254.00
2023-02-06T05:06:58.255Z,94258.00
2023-02-06T05:07:58.261Z,94260.00
2023-02-06T05:08:58.260Z,94262.00
2023-02-06T05:09:58.260Z,94262.00
2023-02-06T05:10:58.245Z,94262.00
2023-02-06T05:11:58.237Z,94262.00
2023-02-06T05:12:58.229Z,94256.00
2023-02-06T05:13:58.234Z,94256.00
2023-02-06T05:14:58.232Z,94254.00
2023-02-06T05:15:58.301Z,94252.00
2023-02-06T05:16:58.294Z,94254.00
2023-02-06T05:17:58.332Z,94252.00
2023-02-06T05:18:58.376Z,94254.00
2023-02-06T05:19:58.726Z,94252.00
2023-02-06T05:20:58.939Z,94250.00
2023-02-06T05:21:58.526Z,94250.00
2023-02-06T05:22:58.567Z,94250.00
2023-02-06T05:23:58.616Z,94250.00
2023-02-06T05:24:58.658Z,94248.00
2023-02-06T05:25:58.712Z,94246.00
2023-02-06T05:26:58.760Z,94248.00
2023-02-06T05:27:58.795Z,94254.00
2023-02-06T05:28:58.842Z,94254.00
2023-02-06T05:29:58.905Z,94256.00
2023-02-06T05:30:59.033Z,94254.00
2023-02-06T05:31:59.045Z,94254.00
2023-02-06T05:32:59.051Z,94252.00
2023-02-06T06:27:01.990Z,94252.00
2023-02-06T06:28:02.115Z,94246.00
2023-02-06T10:02:08.115Z,94189.00
2023-02-06T10:03:08.140Z,94187.00
2023-02-06T10:04:08.201Z,94183.00
2023-02-06T10:05:08.193Z,94183.00
2023-02-06T10:06:08.221Z,94181.00
2023-02-06T10:07:08.241Z,94181.00
2023-02-06T10:08:08.258Z,94181.00
2023-02-06T10:09:08.288Z,94181.00
2023-02-06T10:10:08.288Z,94187.00
2023-02-06T10:11:08.296Z,94183.00
2023-02-06T10:12:08.300Z,94181.00
2023-02-06T10:13:08.304Z,94179.00
2023-02-06T10:14:08.390Z,94179.00
2023-02-06T10:15:08.299Z,94179.00
2023-02-06T10:16:09.951Z,94179.00
2023-02-06T10:17:08.453Z,94179.00
2023-02-06T10:18:08.473Z,94175.00
2023-02-06T10:19:08.480Z,94173.00
2023-02-06T10:20:08.563Z,94175.00
2023-02-06T10:21:08.549Z,94175.00
2023-02-06T10:22:08.675Z,94173.00
2023-02-06T10:23:08.609Z,94171.00
2023-02-06T10:24:09.457Z,94173.00
2023-02-06T10:25:08.688Z,94171.00
2023-02-06T10:26:08.730Z,94173.00
2023-02-06T10:27:08.761Z,94171.00
2023-02-06T10:28:09.632Z,94173.00
2023-02-06T10:29:08.778Z,94166.00
2023-02-06T10:30:08.823Z,94162.00
2023-02-06T10:31:08.859Z,94158.00
2023-02-06T10:32:08.837Z,94152.00
2023-02-06T10:33:14.362Z,94152.00
2023-02-06T10:34:09.866Z,94158.00
2023-02-06T10:35:09.537Z,94154.00
2023-02-06T10:36:08.847Z,94154.00
2023-02-06T10:37:08.847Z,94152.00
2023-02-06T10:38:08.834Z,94148.00
2023-02-06T10:39:08.829Z,94146.00
2023-02-06T10:40:08.823Z,94148.00
2023-02-06T10:41:08.806Z,94144.00
2023-02-06T10:42:08.793Z,94140.00
2023-02-06T10:43:08.769Z,94136.00
2023-02-06T10:44:08.757Z,94134.00
2023-02-06T10:45:19.319Z,94132.00
2023-02-06T10:46:09.748Z,94123.00
2023-02-06T10:47:08.717Z,94121.00
2023-02-06T10:48:08.713Z,94123.00
2023-02-06T10:49:08.710Z,94117.00
2023-02-06T10:50:08.677Z,94117.00
2023-02-06T10:51:08.671Z,94115.00
2023-02-06T10:52:08.646Z,94117.00
2023-02-06T10:53:08.630Z,94113.00
2023-02-06T10:54:08.626Z,94107.00
2023-02-06T10:55:08.609Z,94101.00
2023-02-06T10:56:08.597Z,94101.00
2023-02-06T10:57:08.585Z,94099.00
2023-02-06T10:58:08.574Z,94093.00
2023-02-06T10:59:08.559Z,94089.00
2023-02-06T11:00:08.544Z,94083.00
2023-02-06T11:01:23.671Z,94077.00
2023-02-06T11:02:09.578Z,94083.00
2023-02-06T11:03:08.819Z,94081.00
2023-02-06T11:04:08.484Z,94076.00
2023-02-06T11:05:08.487Z,94072.00
2023-02-06T11:06:08.468Z,94070.00
2023-02-06T11:07:08.460Z,94068.00
2023-02-06T11:08:08.508Z,94066.00
2023-02-06T11:09:08.420Z,94066.00
2023-02-06T11:10:08.413Z,94062.00
2023-02-06T11:11:08.389Z,94060.00
2023-02-06T11:12:08.372Z,94060.00
2023-02-06T11:13:08.358Z,94054.00
2023-02-06T11:14:08.334Z,94052.00
2023-02-06T11:15:08.329Z,94052.00
2023-02-06T11:16:08.402Z,94050.00
2023-02-06T11:17:08.298Z,94046.00
2023-02-06T11:18:08.278Z,94042.00
2023-02-06T11:19:08.356Z,94036.00
2023-02-06T11:20:08.261Z,94032.00
2023-02-06T11:21:08.242Z,94029.00
2023-02-06T11:22:08.232Z,94025.00
2023-02-06T11:23:08.221Z,94025.00
2023-02-06T11:24:08.203Z,94023.00
2023-02-06T11:25:08.199Z,94019.00
2023-02-06T11:26:08.158Z,94019.00
2023-02-06T11:27:08.160Z,94021.00
2023-02-06T11:28:08.154Z,94019.00
2023-02-06T11:29:08.121Z,94015.00
2023-02-06T11:30:08.108Z,94011.00
2023-02-06T12:26:08.106Z,93893.00
2023-02-06T12:27:08.163Z,93889.00
2023-02-06T12:28:08.220Z,93887.00
2023-02-06T12:29:08.268Z,93889.00
2023-02-06T12:30:08.319Z,93889.00
2023-02-06T12:31:08.551Z,93891.00
2023-02-06T12:32:08.438Z,93887.00
2023-02-06T12:33:08.489Z,93887.00
2023-02-06T12:34:08.599Z,93885.00
2023-02-06T12:35:08.670Z,93885.00
2023-02-06T12:36:08.676Z,93883.00
2023-02-06T12:37:08.741Z,93881.00
2023-02-06T12:38:08.802Z,93881.00
2023-02-06T12:39:08.853Z,93880.00
2023-02-06T12:40:08.916Z,93880.00
2023-02-06T12:41:08.977Z,93878.00
2023-02-06T12:42:09.053Z,93876.00
2023-02-06T12:43:09.115Z,93874.00
2023-02-06T12:45:09.217Z,93862.00
2023-02-06T12:46:09.299Z,93860.00
2023-02-06T12:47:09.342Z,93858.00
2023-02-06T12:48:11.946Z,93858.00
2023-02-06T12:49:09.477Z,93860.00
2023-02-06T12:50:09.448Z,93862.00
2023-02-06T12:51:09.410Z,93858.00
2023-02-06T12:52:09.406Z,93858.00
2023-02-06T12:53:09.397Z,93856.00
2023-02-06T12:54:09.398Z,93852.00
2023-02-06T12:55:09.385Z,93848.00
2023-02-06T12:56:09.384Z,93848.00
2023-02-06T12:57:09.391Z,93843.00
2023-02-06T12:58:09.371Z,93841.00
2023-02-06T12:59:09.376Z,93835.00
2023-02-06T13:00:09.437Z,93837.00
2023-02-06T13:01:20.798Z,93839.00
2023-02-06T13:03:09.406Z,93839.00
2023-02-06T13:04:09.377Z,93844.00
2023-02-06T13:05:09.381Z,93844.00
2023-02-06T13:06:10.087Z,93841.00
2023-02-06T13:07:09.382Z,93843.00
2023-02-06T13:08:09.377Z,93839.00
2023-02-06T13:09:09.433Z,93839.00
2023-02-06T13:10:09.394Z,93833.00
2023-02-06T13:11:09.370Z,93833.00
2023-02-06T13:12:09.398Z,93831.00
2023-02-06T13:13:09.411Z,93829.00
2023-02-06T13:14:09.458Z,93829.00
2023-02-06T13:15:09.512Z,93825.00
2023-02-06T13:16:09.665Z,93827.00
2023-02-06T13:17:09.608Z,93823.00
2023-02-06T13:18:09.663Z,93825.00
2023-02-06T13:19:09.679Z,93825.00
2023-02-06T13:20:09.805Z,93825.00
2023-02-06T13:21:09.716Z,93821.00
2023-02-06T13:22:09.738Z,93817.00
2023-02-06T13:23:09.743Z,93813.00
2023-02-06T13:24:09.843Z,93809.00
2023-02-06T13:25:09.802Z,93815.00
2023-02-06T13:26:09.823Z,93815.00
2023-02-06T13:27:09.842Z,93813.00
2023-02-06T13:28:09.898Z,93817.00
2023-02-06T13:29:09.869Z,93813.00
2023-02-06T13:30:09.864Z,93811.00
2023-02-06T13:31:10.013Z,93807.00
2023-02-06T13:32:10.643Z,93799.00
2023-02-06T13:33:09.916Z,93797.00
2023-02-06T13:34:09.953Z,93795.00
2023-02-06T13:35:09.949Z,93789.00
2023-02-06T13:36:10.045Z,93788.00
2023-02-06T13:37:09.985Z,93788.00
2023-02-06T13:38:09.993Z,93788.00
2023-02-06T13:39:10.022Z,93789.00
2023-02-06T13:40:10.032Z,93789.00
2023-02-06T13:41:10.042Z,93788.00
2023-02-06T13:42:10.071Z,93784.00
2023-02-06T13:43:10.125Z,93786.00
2023-02-06T13:44:10.119Z,93782.00
2023-02-06T13:45:10.157Z,93784.00
2023-02-06T13:46:10.214Z,93784.00
2023-02-06T13:47:11.156Z,93784.00
2023-02-06T13:48:10.221Z,93789.00
2023-02-06T13:49:10.223Z,93788.00
2023-02-06T13:50:10.227Z,93788.00
2023-02-06T13:51:10.223Z,93784.00
2023-02-06T13:52:10.241Z,93784.00
2023-02-06T13:53:10.245Z,93782.00
2023-02-06T13:54:10.276Z,93782.00
2023-02-06T13:55:10.315Z,93780.00
2023-02-06T13:56:11.109Z,93778.00
2023-02-06T13:57:10.621Z,93774.00
2023-02-06T13:58:10.438Z,93776.00
2023-02-06T13:59:10.413Z,93778.00
2023-02-06T14:00:10.427Z,93772.00
2023-02-06T14:01:10.446Z,93774.00
2023-02-06T14:02:10.472Z,93770.00
2023-02-06T14:03:10.616Z,93770.00
2023-02-06T14:04:10.495Z,93768.00
2023-02-06T14:05:10.508Z,93772.00
2023-02-06T14:07:10.604Z,93770.00
2023-02-06T14:08:10.622Z,93766.00
2023-02-06T14:09:10.614Z,93764.00
2023-02-06T14:10:10.606Z,93760.00
2023-02-06T14:11:10.605Z,93758.00
2023-02-06T14:12:10.625Z,93758.00
2023-02-06T14:13:10.624Z,93756.00
2023-02-06T14:14:10.626Z,93754.00
2023-02-06T14:15:10.643Z,93758.00
2023-02-06T14:16:10.699Z,93756.00
2023-02-06T14:17:10.648Z,93758.00
2023-02-06T14:18:10.659Z,93754.00
2023-02-06T14:19:10.661Z,93756.00
2023-02-06T14:20:10.667Z,93752.00
2023-02-06T14:21:10.662Z,93754.00
2023-02-06T14:22:10.659Z,93756.00
2023-02-06T14:23:10.663Z,93756.00
2023-02-06T14:24:10.659Z,93758.00
2023-02-06T14:25:10.676Z,93762.00
2023-02-06T14:26:10.679Z,93764.00
2023-02-06T14:27:10.704Z,93766.00
2023-02-06T14:28:10.713Z,93770.00
2023-02-06T14:29:10.714Z,93766.00
2023-02-06T14:30:10.782Z,93768.00
2023-02-06T14:31:10.834Z,93766.00
2023-02-06T14:32:10.807Z,93768.00
2023-02-06T14:33:10.706Z,93768.00
2023-02-06T14:34:10.709Z,93770.00
2023-02-06T14:35:10.706Z,93766.00
2023-02-06T14:36:10.711Z,93768.00
2023-02-06T14:37:10.721Z,93766.00
2023-02-06T14:38:10.720Z,93766.00
2023-02-06T14:39:10.723Z,93766.00
2023-02-06T14:40:10.767Z,93760.00
2023-02-06T14:41:10.724Z,93766.00
2023-02-06T14:42:10.717Z,93758.00
2023-02-06T14:43:10.731Z,93754.00
2023-02-06T14:44:13.606Z,93754.00
2023-02-06T14:45:10.721Z,93752.00
2023-02-06T14:46:10.946Z,93746.00
2023-02-06T14:47:10.710Z,93748.00
2023-02-06T14:48:10.706Z,93746.00
2023-02-06T14:49:11.129Z,93746.00
2023-02-06T14:50:11.629Z,93741.00
2023-02-06T14:51:10.685Z,93737.00
2023-02-06T14:52:10.682Z,93731.00
2023-02-06T14:53:10.684Z,93729.00
2023-02-06T14:54:10.677Z,93727.00
2023-02-06T14:55:10.666Z,93729.00
2023-02-06T14:56:10.665Z,93727.00
2023-02-06T14:57:10.676Z,93727.00
2023-02-06T14:58:10.637Z,93725.00
2023-02-06T14:59:10.643Z,93727.00
2023-02-06T15:00:10.635Z,93729.00
2023-02-06T15:01:10.692Z,93727.00
2023-02-06T15:02:10.615Z,93727.00
2023-02-06T15:03:10.661Z,93729.00
2023-02-06T15:04:10.590Z,93727.00
2023-02-06T15:05:10.574Z,93723.00
2023-02-06T15:06:10.593Z,93721.00
2023-02-06T15:07:10.561Z,93717.00
2023-02-06T15:08:10.555Z,93715.00
2023-02-06T15:09:10.556Z,93715.00
2023-02-06T15:10:10.548Z,93717.00
2023-02-06T15:11:11.542Z,93717.00
2023-02-06T15:12:10.532Z,93713.00
2023-02-06T15:13:10.533Z,93717.00
2023-02-06T15:14:10.522Z,93713.00
2023-02-06T15:15:10.562Z,93715.00
2023-02-06T15:16:10.546Z,93713.00
2023-02-06T15:17:10.509Z,93713.00
2023-02-06T15:18:10.652Z,93709.00
2023-02-06T15:19:10.508Z,93711.00
2023-02-06T15:20:10.511Z,93711.00
2023-02-06T15:21:10.513Z,93709.00
2023-02-06T15:22:10.484Z,93711.00
2023-02-06T15:23:17.784Z,93709.00
2023-02-06T15:24:11.492Z,93709.00
2023-02-06T15:25:10.479Z,93711.00
2023-02-06T15:26:10.538Z,93709.00
2023-02-06T15:27:10.475Z,93705.00
2023-02-06T15:28:10.524Z,93703.00
2023-02-06T15:29:10.471Z,93707.00
2023-02-06T15:30:10.463Z,93709.00
2023-02-06T15:31:10.488Z,93705.00
2023-02-06T15:32:10.457Z,93707.00
2023-02-06T15:33:10.597Z,93707.00
2023-02-06T15:34:10.451Z,93705.00
2023-02-06T15:35:10.451Z,93703.00
2023-02-06T15:36:10.443Z,93705.00
2023-02-06T15:37:10.445Z,93701.00
2023-02-06T15:38:10.439Z,93701.00
2023-02-06T15:39:10.446Z,93703.00
2023-02-06T15:40:10.468Z,93701.00
2023-02-06T15:41:10.508Z,93701.00
2023-02-06T15:42:10.546Z,93701.00
2023-02-06T15:43:10.593Z,93701.00
2023-02-06T15:44:10.624Z,93701.00
2023-02-06T15:45:10.650Z,93701.00
2023-02-06T15:46:10.763Z,93699.00
2023-02-06T15:47:10.730Z,93697.00
2023-02-06T15:48:10.779Z,93695.00
2023-02-06T15:49:10.807Z,93695.00
2023-02-06T15:50:10.900Z,93688.00
2023-02-06T15:51:10.972Z,93684.00
2023-02-06T15:52:10.952Z,93682.00
2023-02-06T15:53:10.963Z,93678.00
2023-02-06T16:07:11.555Z,93694.00
2023-02-06T16:08:11.601Z,93694.00
2023-02-06T16:09:11.644Z,93695.00
2023-02-06T16:10:11.753Z,93694.00
2023-02-06T16:11:11.744Z,93695.00
2023-02-06T16:12:11.802Z,93695.00
2023-02-06T16:13:11.855Z,93697.00
2023-02-06T16:14:11.891Z,93697.00
2023-02-06T16:15:11.948Z,93692.00
2023-02-06T16:16:12.034Z,93694.00
2023-02-06T16:17:12.064Z,93694.00
2023-02-06T16:18:12.112Z,93692.00
2023-02-06T16:19:12.160Z,93694.00
2023-02-06T16:20:12.209Z,93694.00
2023-02-06T16:21:12.265Z,93694.00
2023-02-06T16:22:13.595Z,93688.00
2023-02-06T16:23:12.369Z,93688.00
2023-02-06T16:24:12.425Z,93688.00
2023-02-06T16:25:12.474Z,93690.00
2023-02-06T16:26:12.539Z,93686.00
2023-02-06T16:27:12.586Z,93686.00
2023-02-06T16:28:12.673Z,93688.00
2023-02-06T16:29:12.692Z,93690.00
2023-02-06T16:30:12.744Z,93690.00
2023-02-06T16:31:12.850Z,93688.00
2023-02-06T16:32:12.864Z,93690.00
2023-02-06T16:33:12.932Z,93690.00
2023-02-06T16:34:12.981Z,93690.00
2023-02-06T16:35:13.053Z,93694.00
2023-02-06T16:36:13.108Z,93694.00
2023-02-06T16:37:13.158Z,93694.00
2023-02-06T16:38:13.219Z,93699.00
2023-02-06T16:39:13.273Z,93699.00
2023-02-06T16:40:13.352Z,93701.00
2023-02-06T16:41:13.412Z,93703.00
2023-02-06T16:42:13.485Z,93705.00
2023-02-06T16:43:13.538Z,93703.00
2023-02-06T16:44:13.601Z,93707.00
2023-02-06T16:45:13.652Z,93709.00
2023-02-06T16:46:13.738Z,93705.00
2023-02-06T16:47:13.783Z,93707.00
2023-02-06T16:48:13.854Z,93709.00
2023-02-06T16:49:13.909Z,93713.00
2023-02-06T16:50:13.985Z,93717.00
2023-02-06T16:51:14.662Z,93715.00
2023-02-06T16:52:14.108Z,93717.00
2023-02-06T16:53:14.680Z,93719.00
2023-02-06T16:54:14.233Z,93723.00
2023-02-06T16:55:14.311Z,93725.00
2023-02-06T16:56:14.371Z,93727.00
2023-02-06T16:57:14.435Z,93727.00
2023-02-06T16:58:14.501Z,93731.00
2023-02-06T16:59:14.563Z,93729.00
2023-02-06T18:01:18.176Z,93860.00
2023-02-06T18:02:18.183Z,93858.00
2023-02-06T18:03:18.267Z,93858.00
2023-02-06T18:04:18.297Z,93860.00
2023-02-06T18:05:18.379Z,93856.00
2023-02-06T18:06:18.431Z,93858.00
2023-02-06T18:07:18.498Z,93854.00
2023-02-06T18:08:18.572Z,93854.00
2023-02-06T18:09:18.646Z,93856.00
2023-02-06T18:10:18.703Z,93854.00
2023-02-06T18:11:18.761Z,93860.00
2023-02-06T18:12:18.820Z,93856.00
2023-02-06T18:13:18.868Z,93856.00
2023-02-06T18:14:18.917Z,93858.00
2023-02-06T18:15:19.029Z,93860.00
2023-02-06T18:16:19.063Z,93856.00
2023-02-06T18:17:19.149Z,93856.00
2023-02-06T18:18:19.134Z,93854.00
2023-02-06T18:19:19.199Z,93854.00
2023-02-06T18:20:19.257Z,93854.00
2023-02-06T18:21:19.327Z,93848.00
2023-02-06T18:22:19.359Z,93846.00
2023-02-06T18:23:19.386Z,93844.00
2023-02-06T18:24:19.452Z,93844.00
2023-02-06T18:25:19.494Z,93843.00
2023-02-06T18:26:19.532Z,93841.00
2023-02-06T18:27:20.212Z,93843.00
2023-02-06T18:28:19.637Z,93839.00
2023-02-06T18:29:19.642Z,93839.00
2023-02-06T18:30:19.657Z,93837.00
2023-02-06T18:31:19.735Z,93837.00
2023-02-06T18:32:19.748Z,93833.00
2023-02-06T18:33:19.825Z,93835.00
2023-02-06T18:34:20.618Z,93835.00
2023-02-06T18:35:19.910Z,93837.00
2023-02-06T18:36:19.908Z,93833.00
2023-02-06T18:37:19.947Z,93837.00
2023-02-06T18:38:19.987Z,93837.00
2023-02-06T18:39:20.034Z,93837.00
2023-02-06T18:40:20.070Z,93833.00
2023-02-06T18:41:20.114Z,93831.00
2023-02-06T18:42:20.159Z,93829.00
2023-02-06T18:43:20.174Z,93825.00
2023-02-06T18:44:20.295Z,93825.00
2023-02-06T18:45:20.270Z,93823.00
2023-02-06T18:46:20.413Z,93821.00
2023-02-06T18:47:20.335Z,93821.00
2023-02-06T18:48:20.356Z,93821.00
2023-02-06T18:49:20.390Z,93821.00
2023-02-06T18:50:20.447Z,93821.00
2023-02-06T18:51:20.478Z,93823.00
2023-02-06T18:52:20.521Z,93825.00
2023-02-06T18:53:20.557Z,93825.00
2023-02-06T18:54:20.596Z,93831.00
2023-02-06T18:55:20.632Z,93831.00
2023-02-06T18:56:20.669Z,93829.00
2023-02-06T18:57:20.721Z,93829.00
2023-02-06T18:58:20.747Z,93829.00
2023-02-06T18:59:20.781Z,93829.00
2023-02-06T19:00:20.905Z,93829.00
2023-02-06T19:01:20.903Z,93829.00
2023-02-06T19:02:20.938Z,93829.00
2023-02-06T19:03:21.714Z,93827.00
2023-02-06T19:04:20.951Z,93825.00
2023-02-06T19:05:20.987Z,93827.00
2023-02-06T19:06:21.000Z,93829.00
2023-02-06T19:07:21.026Z,93827.00
2023-02-06T19:08:21.072Z,93831.00
2023-02-06T19:09:21.120Z,93833.00
2023-02-06T19:10:21.153Z,93831.00
2023-02-06T19:11:21.188Z,93831.00
2023-02-06T19:12:21.221Z,93825.00
2023-02-06T19:13:21.271Z,93831.00
2023-02-06T19:14:21.288Z,93831.00
2023-02-06T19:15:21.311Z,93831.00
2023-02-06T19:16:21.647Z,93833.00
2023-02-06T19:17:21.406Z,93835.00
2023-02-06T19:18:36.025Z,93835.00
2023-02-06T19:19:22.446Z,93831.00
2023-02-06T19:20:21.425Z,93829.00
2023-02-06T19:21:21.427Z,93825.00
2023-02-06T19:22:21.418Z,93825.00
2023-02-06T19:23:21.408Z,93829.00
2023-02-06T19:24:21.420Z,93829.00
2023-02-06T19:25:21.422Z,93831.00
2023-02-06T19:26:21.414Z,93833.00
2023-02-06T19:27:21.500Z,93835.00
2023-02-06T19:28:21.454Z,93833.00
2023-02-06T19:29:34.597Z,93833.00
2023-02-06T19:30:22.485Z,93833.00
2023-02-06T19:31:21.473Z,93837.00
2023-02-06T19:32:21.520Z,93835.00
2023-02-06T19:33:21.440Z,93839.00
2023-02-06T19:34:21.526Z,93839.00
2023-02-06T19:35:21.450Z,93841.00
2023-02-06T19:36:21.451Z,93843.00
2023-02-06T19:37:21.472Z,93846.00
2023-02-06T19:38:21.460Z,93846.00
2023-02-06T19:39:21.442Z,93848.00
2023-02-06T19:40:21.479Z,93854.00
2023-02-06T19:41:21.567Z,93852.00
2023-02-06T19:42:21.549Z,93852.00
2023-02-06T19:43:21.589Z,93850.00
2023-02-06T19:44:21.621Z,93850.00
2023-02-06T19:45:21.667Z,93856.00
2023-02-06T19:46:21.690Z,93852.00
2023-02-06T19:47:21.715Z,93856.00
2023-02-06T19:48:21.744Z,93846.00
2023-02-06T19:49:21.772Z,93852.00
2023-02-06T19:50:21.824Z,93848.00
2023-02-06T19:51:21.867Z,93850.00
2023-02-06T19:52:21.912Z,93850.00
2023-02-06T19:53:21.958Z,93841.00
2023-02-06T19:54:21.984Z,93846.00
2023-02-06T19:55:22.028Z,93850.00
2023-02-06T19:56:22.071Z,93858.00
2023-02-06T19:57:22.126Z,93856.00
2023-02-06T19:58:22.165Z,93850.00
2023-02-06T19:59:22.222Z,93852.00
2023-02-06T20:00:22.227Z,93850.00
2023-02-06T20:01:22.313Z,93852.00
2023-02-06T20:02:22.310Z,93858.00
2023-02-06T20:03:22.389Z,93854.00
2023-02-06T20:04:22.414Z,93858.00
2023-02-06T20:05:22.424Z,93864.00
2023-02-06T20:06:22.460Z,93866.00
2023-02-06T20:07:22.498Z,93874.00
2023-02-06T20:08:22.556Z,93876.00
2023-02-06T20:09:22.578Z,93876.00
2023-02-06T20:10:22.631Z,93881.00
